KPNS/PNS METAR and TAF weather

Enter ICAO airport designator
Station Type Date Time Source
KPNS METAR 2020/07/13 14:53 UTC NOAA

KPNS 131453Z 26005KT 10SM CLR 31/24 A2993 RMK AO2 SLP136 T03060239 51016


Station Type Date Time Source
KPNS Decoded METAR 2020/07/13 14:53 UTC NOAA

PENSACOLA REGIONAL AIRPORT, FL, United States (KPNS) 30-29N 087-11W 38M
Jul 13, 2020 - 10:53 AM EDT / 2020.07.13 1453 UTC
Wind: from the W (260 degrees) at 6 MPH (5 KT):0
Visibility: 10 mile(s):0
Sky conditions: clear
Temperature: 87.1 F (30.6 C)
Heat index: 96.4 F (35.8 C):1
Dew Point: 75.0 F (23.9 C)
Relative Humidity: 67%
Pressure (altimeter): 29.93 in. Hg (1013 hPa)
Pressure tendency: 0.05 inches (1.6 hPa) higher than three hours ago
ob: KPNS 131453Z 26005KT 10SM CLR 31/24 A2993 RMK AO2 SLP136 T03060239 51016
cycle: 15

Station Type Date Time Source
KPNS TAF 2020/07/13 12:27 UTC NOAA

TAF KPNS 131125Z 1312/1412 33009KT P6SM VCSH SCT070 OVC110
FM131500 29007KT P6SM VCTS SCT030CB SCT100
FM131800 24008KT P6SM VCTS SCT040CB SCT100
FM140000 24008KT P6SM SCT080 SCT250

Example: see airport list